Estación Meteorológica Peña el Pijo (Robertgarden) [ 02/03/23 04:36:26 CET ]

Fecha Hora Presion(HPa) Temp (°C) Humedad % Rocio (°C) Viento ( m/s) Direccion Lluvia 1Hora(mm) Lluvia 24H(mm) LLuvia Total(mm)
2010-Mar-23 01:01:14 1013.600 3.9 86 1.8         104.63
2010-Mar-23 02:04:12 1013.000 3.7 88 1.9         104.63
2010-Mar-23 03:01:18 1012.500 3.2 89 1.5         104.63
2010-Mar-23 04:01:12 1011.700 2.7 90 1.2         104.63
2010-Mar-23 05:01:12 1011.300 2.4 90 0.9         104.63
2010-Mar-23 06:01:15 1011.000 2.3 91 0.9         104.63
2010-Mar-23 07:01:13 1010.800 2.1 92 0.9         104.63
2010-Mar-23 08:01:14 1011.100 2.9 93 1.9         104.63
2010-Mar-23 09:01:19 1010.900 6.8 93 5.8         104.63
2010-Mar-23 10:01:12 1010.600 13.4 66 7.2         104.63
2010-Mar-23 11:01:12 1010.500 16.4 51 6.2         104.63
2010-Mar-23 12:01:14 1009.800 17.1 47 5.6 2.2 S     104.63
2010-Mar-23 13:01:19 1009.600 16.4 49 5.6         104.63
2010-Mar-23 14:01:12 1008.700 15.6 55 6.6         104.63
2010-Mar-23 15:01:21 1008.000 14.5 60 6.6         104.63
2010-Mar-23 16:01:17 1007.200 14.9 59 7.0 2.4 NE     104.63
2010-Mar-23 17:01:16 1006.900 14.5 60 6.8         104.63
2010-Mar-23 18:01:20 1006.800 13.6 65 7.1 1.2 NNE     104.63
2010-Mar-23 19:01:14 1006.700 12.6 66 6.4         104.63
2010-Mar-23 20:01:14 1006.800 10.9 73 6.3         104.63
2010-Mar-23 21:01:17 1007.500 9.1 81 6.0         104.63
2010-Mar-23 22:01:12 1007.500 8.1 83 5.4         104.63
2010-Mar-23 23:01:14 1007.000 7.2 85 4.8         104.63

Temperatura Máxima:17°    Temperatura Mínima:
Presión Máxima:1013.600 Hpa    Presión Mínima:1006.700 Hpa


Volver